sensor_id;sensor_type;location;lat;lon;timestamp;pressure;altitude;pressure_sealevel;temperature;humidity
61710;BME280;47633;51.494;5.386;2023-05-10T00:00:45;100782.19;;;20.30;55.04
61710;BME280;47633;51.494;5.386;2023-05-10T00:03:11;100780.50;;;20.29;55.14
61710;BME280;47633;51.494;5.386;2023-05-10T00:05:36;100779.66;;;20.29;55.34
61710;BME280;47633;51.494;5.386;2023-05-10T00:08:02;100782.44;;;20.27;54.96
61710;BME280;47633;51.494;5.386;2023-05-10T00:10:27;100783.41;;;20.26;55.15
61710;BME280;47633;51.494;5.386;2023-05-10T00:12:52;100783.41;;;20.26;54.90
61710;BME280;47633;51.494;5.386;2023-05-10T00:15:18;100776.19;;;20.28;55.07
61710;BME280;47633;51.494;5.386;2023-05-10T00:17:43;100780.78;;;20.26;55.03
61710;BME280;47633;51.494;5.386;2023-05-10T00:20:09;100778.13;;;20.26;55.12
61710;BME280;47633;51.494;5.386;2023-05-10T00:22:34;100771.31;;;20.24;55.04
61710;BME280;47633;51.494;5.386;2023-05-10T00:25:00;100779.13;;;20.25;54.71
61710;BME280;47633;51.494;5.386;2023-05-10T00:27:25;100773.81;;;20.25;54.81
61710;BME280;47633;51.494;5.386;2023-05-10T00:29:51;100775.91;;;20.22;54.95
61710;BME280;47633;51.494;5.386;2023-05-10T00:32:16;100784.28;;;20.27;54.71
61710;BME280;47633;51.494;5.386;2023-05-10T00:34:41;100781.78;;;20.25;54.82
61710;BME280;47633;51.494;5.386;2023-05-10T00:37:07;100775.63;;;20.25;54.91
61710;BME280;47633;51.494;5.386;2023-05-10T00:39:32;100762.25;;;20.17;54.90
61710;BME280;47633;51.494;5.386;2023-05-10T00:41:57;100783.56;;;20.25;55.19
61710;BME280;47633;51.494;5.386;2023-05-10T00:44:22;100777.56;;;20.23;54.72
61710;BME280;47633;51.494;5.386;2023-05-10T00:46:48;100771.47;;;20.22;54.74
61710;BME280;47633;51.494;5.386;2023-05-10T00:49:14;100779.41;;;20.22;54.44
61710;BME280;47633;51.494;5.386;2023-05-10T00:51:40;100776.06;;;20.20;54.81
61710;BME280;47633;51.494;5.386;2023-05-10T00:54:07;100779.25;;;20.24;54.79
61710;BME280;47633;51.494;5.386;2023-05-10T00:56:33;100779.25;;;20.24;54.64
61710;BME280;47633;51.494;5.386;2023-05-10T00:58:59;100766.44;;;20.19;54.88
61710;BME280;47633;51.494;5.386;2023-05-10T01:01:25;100767.28;;;20.20;54.93
61710;BME280;47633;51.494;5.386;2023-05-10T01:03:50;100766.44;;;20.19;54.69
61710;BME280;47633;51.494;5.386;2023-05-10T01:06:15;100774.09;;;20.22;54.63
61710;BME280;47633;51.494;5.386;2023-05-10T01:08:41;100773.25;;;20.22;54.57
61710;BME280;47633;51.494;5.386;2023-05-10T01:11:06;100769.78;;;20.21;54.65
61710;BME280;47633;51.494;5.386;2023-05-10T01:13:36;100769.91;;;20.20;54.80
61710;BME280;47633;51.494;5.386;2023-05-10T01:16:03;100766.59;;;20.18;54.89
61710;BME280;47633;51.494;5.386;2023-05-10T01:18:31;100766.59;;;20.18;54.77
61710;BME280;47633;51.494;5.386;2023-05-10T01:21:06;100773.69;;;20.17;54.80
61710;BME280;47633;51.494;5.386;2023-05-10T01:26:39;100771.59;;;20.21;54.65
61710;BME280;47633;51.494;5.386;2023-05-10T01:32:03;100764.91;;;20.17;54.79
61710;BME280;47633;51.494;5.386;2023-05-10T01:34:44;100758.78;;;20.16;54.68
61710;BME280;47633;51.494;5.386;2023-05-10T01:37:20;100765.19;;;20.14;54.70
61710;BME280;47633;51.494;5.386;2023-05-10T01:40:08;100765.03;;;20.15;54.54
61710;BME280;47633;51.494;5.386;2023-05-10T01:42:43;100765.91;;;20.16;54.84
61710;BME280;47633;51.494;5.386;2023-05-10T01:45:19;100767.69;;;20.15;54.84
61710;BME280;47633;51.494;5.386;2023-05-10T01:47:54;100761.03;;;20.11;54.53
61710;BME280;47633;51.494;5.386;2023-05-10T01:50:27;100762.53;;;20.14;54.85
61710;BME280;47633;51.494;5.386;2023-05-10T01:52:56;100759.19;;;20.11;54.81
61710;BME280;47633;51.494;5.386;2023-05-10T01:55:25;100774.81;;;20.15;54.77
61710;BME280;47633;51.494;5.386;2023-05-10T01:58:01;100774.25;;;20.11;54.67
61710;BME280;47633;51.494;5.386;2023-05-10T02:00:28;100774.81;;;20.15;54.73
61710;BME280;47633;51.494;5.386;2023-05-10T02:02:55;100777.59;;;20.13;54.71
61710;BME280;47633;51.494;5.386;2023-05-10T02:05:21;100770.88;;;20.09;54.81
61710;BME280;47633;51.494;5.386;2023-05-10T02:07:48;100776.03;;;20.10;54.79
61710;BME280;47633;51.494;5.386;2023-05-10T02:10:15;100779.53;;;20.11;54.74
61710;BME280;47633;51.494;5.386;2023-05-10T02:12:42;100777.72;;;20.11;54.80
61710;BME280;47633;51.494;5.386;2023-05-10T02:15:09;100785.53;;;20.13;54.78
61710;BME280;47633;51.494;5.386;2023-05-10T02:17:37;100783.00;;;20.11;54.74
61710;BME280;47633;51.494;5.386;2023-05-10T02:20:04;100795.28;;;20.13;54.79
61710;BME280;47633;51.494;5.386;2023-05-10T02:22:31;100789.28;;;20.10;54.79
61710;BME280;47633;51.494;5.386;2023-05-10T02:24:58;100797.94;;;20.13;54.62
61710;BME280;47633;51.494;5.386;2023-05-10T02:27:26;100794.41;;;20.12;54.59
61710;BME280;47633;51.494;5.386;2023-05-10T02:29:53;100792.78;;;20.11;54.73
61710;BME280;47633;51.494;5.386;2023-05-10T02:32:18;100791.22;;;20.08;54.60
61710;BME280;47633;51.494;5.386;2023-05-10T02:34:44;100794.69;;;20.09;54.66
61710;BME280;47633;51.494;5.386;2023-05-10T02:37:13;100794.56;;;20.10;54.58
61710;BME280;47633;51.494;5.386;2023-05-10T02:39:39;100792.91;;;20.09;54.56
61710;BME280;47633;51.494;5.386;2023-05-10T02:42:11;100800.84;;;20.09;54.66
61710;BME280;47633;51.494;5.386;2023-05-10T02:44:41;100803.34;;;20.11;54.61
61710;BME280;47633;51.494;5.386;2023-05-10T02:47:06;100792.63;;;20.03;54.73
61710;BME280;47633;51.494;5.386;2023-05-10T02:49:32;100794.69;;;20.09;54.73
61710;BME280;47633;51.494;5.386;2023-05-10T02:52:00;100798.19;;;20.09;54.51
61710;BME280;47633;51.494;5.386;2023-05-10T02:54:31;100796.53;;;20.08;54.48
61710;BME280;47633;51.494;5.386;2023-05-10T02:56:58;100797.34;;;20.09;54.46
61710;BME280;47633;51.494;5.386;2023-05-10T02:59:27;100807.94;;;20.09;54.61
61710;BME280;47633;51.494;5.386;2023-05-10T03:01:53;100805.41;;;20.07;54.50
61710;BME280;47633;51.494;5.386;2023-05-10T03:04:18;100802.63;;;20.09;54.48
61710;BME280;47633;51.494;5.386;2023-05-10T03:06:44;100810.72;;;20.07;54.57
61710;BME280;47633;51.494;5.386;2023-05-10T03:09:10;100799.31;;;20.07;54.68
61710;BME280;47633;51.494;5.386;2023-05-10T03:11:47;100809.06;;;20.06;54.58
61710;BME280;47633;51.494;5.386;2023-05-10T03:17:13;100809.19;;;20.05;54.62
61710;BME280;47633;51.494;5.386;2023-05-10T03:19:55;100809.19;;;20.05;54.37
61710;BME280;47633;51.494;5.386;2023-05-10T03:23:19;100811.69;;;20.06;54.60
61710;BME280;47633;51.494;5.386;2023-05-10T03:25:24;100810.72;;;20.07;54.51
61710;BME280;47633;51.494;5.386;2023-05-10T03:27:51;100806.69;;;20.03;54.53
61710;BME280;47633;51.494;5.386;2023-05-10T03:30:18;100812.53;;;20.07;54.54
61710;BME280;47633;51.494;5.386;2023-05-10T03:32:44;100816.13;;;20.06;54.50
61710;BME280;47633;51.494;5.386;2023-05-10T03:35:11;100822.41;;;20.05;54.54
61710;BME280;47633;51.494;5.386;2023-05-10T03:37:37;100817.13;;;20.05;54.35
61710;BME280;47633;51.494;5.386;2023-05-10T03:40:03;100814.63;;;20.03;54.53
61710;BME280;47633;51.494;5.386;2023-05-10T03:42:28;100822.41;;;20.05;54.52
61710;BME280;47633;51.494;5.386;2023-05-10T03:44:54;100822.69;;;20.02;54.45
61710;BME280;47633;51.494;5.386;2023-05-10T03:47:19;100823.25;;;20.05;54.45
61710;BME280;47633;51.494;5.386;2023-05-10T03:49:44;100818.78;;;19.96;54.59
61710;BME280;47633;51.494;5.386;2023-05-10T03:52:10;100825.19;;;20.03;54.43
61710;BME280;47633;51.494;5.386;2023-05-10T03:54:35;100825.19;;;20.03;54.47
61710;BME280;47633;51.494;5.386;2023-05-10T03:57:01;100830.50;;;20.03;54.50
61710;BME280;47633;51.494;5.386;2023-05-10T03:59:28;100828.13;;;20.00;54.50
61710;BME280;47633;51.494;5.386;2023-05-10T04:01:53;100831.59;;;20.01;54.53
61710;BME280;47633;51.494;5.386;2023-05-10T04:04:18;100833.28;;;20.02;54.61
61710;BME280;47633;51.494;5.386;2023-05-10T04:06:45;100836.88;;;20.01;54.52
61710;BME280;47633;51.494;5.386;2023-05-10T04:09:11;100833.41;;;20.00;54.35
61710;BME280;47633;51.494;5.386;2023-05-10T04:11:36;100842.03;;;20.02;54.39
61710;BME280;47633;51.494;5.386;2023-05-10T04:14:01;100841.22;;;20.02;54.46
61710;BME280;47633;51.494;5.386;2023-05-10T04:16:27;100840.38;;;20.01;54.32
61710;BME280;47633;51.494;5.386;2023-05-10T04:18:52;100838.69;;;20.00;54.35
61710;BME280;47633;51.494;5.386;2023-05-10T04:21:17;100842.91;;;20.03;54.51
61710;BME280;47633;51.494;5.386;2023-05-10T04:23:43;100833.69;;;19.97;54.41
61710;BME280;47633;51.494;5.386;2023-05-10T04:26:08;100836.34;;;19.97;54.34
61710;BME280;47633;51.494;5.386;2023-05-10T04:28:33;100849.28;;;20.00;54.23
61710;BME280;47633;51.494;5.386;2023-05-10T04:31:03;100844.13;;;19.99;54.33
61710;BME280;47633;51.494;5.386;2023-05-10T04:33:29;100843.03;;;20.01;54.31
61710;BME280;47633;51.494;5.386;2023-05-10T04:35:54;100844.81;;;20.01;54.34
61710;BME280;47633;51.494;5.386;2023-05-10T04:38:19;100838.97;;;19.97;54.19
61710;BME280;47633;51.494;5.386;2023-05-10T04:40:45;100837.44;;;19.94;54.03
61710;BME280;47633;51.494;5.386;2023-05-10T04:43:10;100838.97;;;19.97;54.28
61710;BME280;47633;51.494;5.386;2023-05-10T04:45:35;100846.91;;;19.97;54.16
61710;BME280;47633;51.494;5.386;2023-05-10T04:48:00;100850.50;;;19.96;54.25
61710;BME280;47633;51.494;5.386;2023-05-10T04:50:26;100848.59;;;19.98;54.27
61710;BME280;47633;51.494;5.386;2023-05-10T04:52:51;100842.03;;;19.92;54.19
61710;BME280;47633;51.494;5.386;2023-05-10T04:55:16;100852.34;;;19.96;54.15
61710;BME280;47633;51.494;5.386;2023-05-10T04:57:42;100855.66;;;19.98;53.85
61710;BME280;47633;51.494;5.386;2023-05-10T05:00:07;100852.19;;;19.97;54.21
61710;BME280;47633;51.494;5.386;2023-05-10T05:02:33;100854.97;;;19.96;53.97
61710;BME280;47633;51.494;5.386;2023-05-10T05:04:58;100848.28;;;19.91;54.25
61710;BME280;47633;51.494;5.386;2023-05-10T05:07:23;100850.66;;;19.94;54.10
61710;BME280;47633;51.494;5.386;2023-05-10T05:09:49;100861.09;;;19.96;54.07
61710;BME280;47633;51.494;5.386;2023-05-10T05:12:14;100849.81;;;19.94;53.98
61710;BME280;47633;51.494;5.386;2023-05-10T05:14:40;100860.41;;;19.94;54.13
61710;BME280;47633;51.494;5.386;2023-05-10T05:17:06;100866.38;;;19.96;54.01
61710;BME280;47633;51.494;5.386;2023-05-10T05:19:31;100866.66;;;19.93;54.03
61710;BME280;47633;51.494;5.386;2023-05-10T05:21:57;100870.84;;;19.96;53.96
61710;BME280;47633;51.494;5.386;2023-05-10T05:24:22;100868.34;;;19.94;53.71
61710;BME280;47633;51.494;5.386;2023-05-10T05:26:47;100869.44;;;19.91;54.11
61710;BME280;47633;51.494;5.386;2023-05-10T05:29:13;100865.97;;;19.91;54.17
61710;BME280;47633;51.494;5.386;2023-05-10T05:31:38;100878.09;;;19.93;53.89
61710;BME280;47633;51.494;5.386;2023-05-10T05:34:03;100883.53;;;19.92;54.03
61710;BME280;47633;51.494;5.386;2023-05-10T05:36:28;100873.34;;;19.87;54.02
61710;BME280;47633;51.494;5.386;2023-05-10T05:38:54;100886.44;;;19.89;54.01
61710;BME280;47633;51.494;5.386;2023-05-10T05:41:19;100882.25;;;19.86;54.08
61710;BME280;47633;51.494;5.386;2023-05-10T05:43:46;100884.19;;;19.84;54.08
61710;BME280;47633;51.494;5.386;2023-05-10T05:46:11;100882.38;;;19.85;54.22
61710;BME280;47633;51.494;5.386;2023-05-10T05:48:37;100877.94;;;19.85;54.08
61710;BME280;47633;51.494;5.386;2023-05-10T05:51:02;100890.72;;;19.90;54.10
61710;BME280;47633;51.494;5.386;2023-05-10T05:53:27;100882.78;;;19.90;54.18
61710;BME280;47633;51.494;5.386;2023-05-10T05:55:57;100886.44;;;19.89;54.20
61710;BME280;47633;51.494;5.386;2023-05-10T05:58:23;100890.72;;;19.90;53.86
61710;BME280;47633;51.494;5.386;2023-05-10T06:00:49;100894.94;;;19.92;54.09
61710;BME280;47633;51.494;5.386;2023-05-10T06:03:15;100894.09;;;19.92;53.96
61710;BME280;47633;51.494;5.386;2023-05-10T06:05:40;100897.84;;;19.89;54.10
61710;BME280;47633;51.494;5.386;2023-05-10T06:08:06;100896.75;;;19.92;54.11
61710;BME280;47633;51.494;5.386;2023-05-10T06:10:31;100903.00;;;19.91;54.16
61710;BME280;47633;51.494;5.386;2023-05-10T06:12:56;100904.81;;;19.90;54.08
61710;BME280;47633;51.494;5.386;2023-05-10T06:15:22;100903.97;;;19.90;54.24
61710;BME280;47633;51.494;5.386;2023-05-10T06:17:47;100904.94;;;19.89;54.41
61710;BME280;47633;51.494;5.386;2023-05-10T06:20:15;100900.06;;;19.84;54.18
61710;BME280;47633;51.494;5.386;2023-05-10T06:22:40;100908.81;;;19.85;54.37
61710;BME280;47633;51.494;5.386;2023-05-10T06:25:06;100913.28;;;19.84;54.44
61710;BME280;47633;51.494;5.386;2023-05-10T06:27:31;100918.03;;;19.90;54.16
61710;BME280;47633;51.494;5.386;2023-05-10T06:29:57;100908.41;;;19.89;54.35
61710;BME280;47633;51.494;5.386;2023-05-10T06:32:22;100909.13;;;19.91;54.48
61710;BME280;47633;51.494;5.386;2023-05-10T06:34:47;100916.09;;;19.92;54.73
61710;BME280;47633;51.494;5.386;2023-05-10T06:37:13;100921.38;;;19.92;54.71
61710;BME280;47633;51.494;5.386;2023-05-10T06:39:38;100925.25;;;19.88;55.12
61710;BME280;47633;51.494;5.386;2023-05-10T06:42:04;100930.38;;;19.80;55.54
61710;BME280;47633;51.494;5.386;2023-05-10T06:44:30;100927.16;;;19.77;55.73
61710;BME280;47633;51.494;5.386;2023-05-10T06:46:56;100931.50;;;19.78;55.62
61710;BME280;47633;51.494;5.386;2023-05-10T06:49:22;100929.00;;;19.76;55.67
61710;BME280;47633;51.494;5.386;2023-05-10T06:51:47;100934.13;;;19.78;55.54
61710;BME280;47633;51.494;5.386;2023-05-10T06:54:13;100928.09;;;19.75;55.68
61710;BME280;47633;51.494;5.386;2023-05-10T06:56:39;100934.50;;;19.73;55.77
61710;BME280;47633;51.494;5.386;2023-05-10T06:59:04;100937.28;;;19.71;56.07
61710;BME280;47633;51.494;5.386;2023-05-10T07:01:29;100939.22;;;19.69;56.40
61710;BME280;47633;51.494;5.386;2023-05-10T07:03:55;100940.44;;;19.65;56.36
61710;BME280;47633;51.494;5.386;2023-05-10T07:06:20;100946.31;;;19.69;56.55
61710;BME280;47633;51.494;5.386;2023-05-10T07:08:46;100946.88;;;19.72;56.31
61710;BME280;47633;51.494;5.386;2023-05-10T07:11:11;100954.66;;;19.74;56.30
61710;BME280;47633;51.494;5.386;2023-05-10T07:13:36;100952.88;;;19.74;56.22
61710;BME280;47633;51.494;5.386;2023-05-10T07:16:04;100956.16;;;19.88;55.84
61710;BME280;47633;51.494;5.386;2023-05-10T07:18:31;100954.69;;;20.05;55.40
61710;BME280;47633;51.494;5.386;2023-05-10T07:20:57;100954.97;;;20.11;54.94
61710;BME280;47633;51.494;5.386;2023-05-10T07:23:22;100963.09;;;20.20;54.71
61710;BME280;47633;51.494;5.386;2023-05-10T07:25:48;100968.09;;;20.23;54.71
61710;BME280;47633;51.494;5.386;2023-05-10T07:28:15;100963.63;;;20.23;54.43
61710;BME280;47633;51.494;5.386;2023-05-10T07:30:41;100975.09;;;20.24;54.59
61710;BME280;47633;51.494;5.386;2023-05-10T07:33:08;100970.75;;;20.23;54.64
61710;BME280;47633;51.494;5.386;2023-05-10T07:35:34;100980.50;;;20.22;54.60
61710;BME280;47633;51.494;5.386;2023-05-10T07:38:00;100974.53;;;20.20;54.77
61710;BME280;47633;51.494;5.386;2023-05-10T07:40:26;100974.66;;;20.19;54.65
61710;BME280;47633;51.494;5.386;2023-05-10T07:42:51;100975.47;;;20.19;54.83
61710;BME280;47633;51.494;5.386;2023-05-10T07:45:17;100979.81;;;20.20;54.84
61710;BME280;47633;51.494;5.386;2023-05-10T07:47:42;100978.81;;;20.21;54.67
61710;BME280;47633;51.494;5.386;2023-05-10T07:50:08;100983.28;;;20.21;54.72
61710;BME280;47633;51.494;5.386;2023-05-10T07:52:33;100984.13;;;20.21;54.87
61710;BME280;47633;51.494;5.386;2023-05-10T07:54:58;100987.75;;;20.20;54.93
61710;BME280;47633;51.494;5.386;2023-05-10T07:57:24;100988.97;;;20.16;54.96
61710;BME280;47633;51.494;5.386;2023-05-10T07:59:49;100996.34;;;20.13;54.83
61710;BME280;47633;51.494;5.386;2023-05-10T08:02:14;100997.97;;;20.04;55.69
61710;BME280;47633;51.494;5.386;2023-05-10T08:04:40;100998.13;;;20.02;55.88
61710;BME280;47633;51.494;5.386;2023-05-10T08:07:05;100999.50;;;19.97;55.92
61710;BME280;47633;51.494;5.386;2023-05-10T08:09:31;100998.66;;;19.96;55.93
61710;BME280;47633;51.494;5.386;2023-05-10T08:11:56;100998.50;;;19.98;56.26
61710;BME280;47633;51.494;5.386;2023-05-10T08:14:23;101004.78;;;19.97;56.03
61710;BME280;47633;51.494;5.386;2023-05-10T08:16:49;101012.19;;;20.03;55.95
61710;BME280;47633;51.494;5.386;2023-05-10T08:19:14;101011.78;;;20.07;55.80
61710;BME280;47633;51.494;5.386;2023-05-10T08:21:44;101011.91;;;20.06;55.69
61710;BME280;47633;51.494;5.386;2023-05-10T08:24:09;101018.75;;;20.08;55.69
61710;BME280;47633;51.494;5.386;2023-05-10T08:26:34;101023.91;;;20.10;55.71
61710;BME280;47633;51.494;5.386;2023-05-10T08:29:00;101031.84;;;20.10;55.78
61710;BME280;47633;51.494;5.386;2023-05-10T08:31:25;101019.97;;;20.04;55.94
61710;BME280;47633;51.494;5.386;2023-05-10T08:33:50;101026.94;;;20.05;56.09
61710;BME280;47633;51.494;5.386;2023-05-10T08:36:17;101029.84;;;20.02;55.91
61710;BME280;47633;51.494;5.386;2023-05-10T08:38:49;101022.91;;;20.01;56.12
61710;BME280;47633;51.494;5.386;2023-05-10T08:41:15;101024.97;;;19.98;56.09
61710;BME280;47633;51.494;5.386;2023-05-10T08:43:41;101021.63;;;19.96;56.29
61710;BME280;47633;51.494;5.386;2023-05-10T08:46:13;101028.78;;;20.05;55.96
61710;BME280;47633;51.494;5.386;2023-05-10T08:48:41;101030.28;;;20.07;55.99
61710;BME280;47633;51.494;5.386;2023-05-10T08:51:07;101030.44;;;20.06;56.17
61710;BME280;47633;51.494;5.386;2023-05-10T08:53:36;101033.53;;;20.11;55.99
61710;BME280;47633;51.494;5.386;2023-05-10T08:56:02;101037.00;;;20.11;56.28
61710;BME280;47633;51.494;5.386;2023-05-10T08:58:28;101029.91;;;20.12;55.94
61710;BME280;47633;51.494;5.386;2023-05-10T09:00:53;101039.53;;;20.13;56.02
61710;BME280;47633;51.494;5.386;2023-05-10T09:03:19;101028.38;;;20.09;56.20
61710;BME280;47633;51.494;5.386;2023-05-10T09:05:45;101036.88;;;20.13;55.91
61710;BME280;47633;51.494;5.386;2023-05-10T09:08:11;101030.03;;;20.10;55.99
61710;BME280;47633;51.494;5.386;2023-05-10T09:10:39;101035.06;;;20.14;55.56
61710;BME280;47633;51.494;5.386;2023-05-10T09:13:05;101030.63;;;20.14;55.88
61710;BME280;47633;51.494;5.386;2023-05-10T09:15:32;101033.84;;;20.18;55.79
61710;BME280;47633;51.494;5.386;2023-05-10T09:17:57;101038.03;;;20.20;55.53
61710;BME280;47633;51.494;5.386;2023-05-10T09:20:24;101031.63;;;20.23;55.51
61710;BME280;47633;51.494;5.386;2023-05-10T09:22:49;101036.78;;;20.24;55.54
61710;BME280;47633;51.494;5.386;2023-05-10T09:25:16;101045.09;;;20.20;56.02
61710;BME280;47633;51.494;5.386;2023-05-10T09:27:45;101044.97;;;20.21;56.06
61710;BME280;47633;51.494;5.386;2023-05-10T09:30:15;101046.09;;;20.19;56.08
61710;BME280;47633;51.494;5.386;2023-05-10T09:32:47;101034.34;;;20.11;56.08
61710;BME280;47633;51.494;5.386;2023-05-10T09:35:15;101043.72;;;20.16;56.53
61710;BME280;47633;51.494;5.386;2023-05-10T09:37:42;101042.16;;;20.13;56.30
61710;BME280;47633;51.494;5.386;2023-05-10T09:40:11;101043.84;;;20.14;56.31
61710;BME280;47633;51.494;5.386;2023-05-10T09:42:37;101053.44;;;20.15;56.46
61710;BME280;47633;51.494;5.386;2023-05-10T09:45:04;101050.53;;;20.18;55.94
61710;BME280;47633;51.494;5.386;2023-05-10T09:47:31;101059.59;;;20.16;56.35
61710;BME280;47633;51.494;5.386;2023-05-10T09:49:57;101067.28;;;20.19;56.31
61710;BME280;47633;51.494;5.386;2023-05-10T09:52:28;101060.69;;;20.13;56.35
61710;BME280;47633;51.494;5.386;2023-05-10T09:54:53;101067.53;;;20.16;56.13
61710;BME280;47633;51.494;5.386;2023-05-10T09:57:24;101063.19;;;20.15;56.14
61710;BME280;47633;51.494;5.386;2023-05-10T09:59:50;101070.88;;;20.18;55.99
61710;BME280;47633;51.494;5.386;2023-05-10T10:02:16;101069.19;;;20.17;56.04
61710;BME280;47633;51.494;5.386;2023-05-10T10:04:42;101068.34;;;20.16;56.13
61710;BME280;47633;51.494;5.386;2023-05-10T10:07:08;101067.53;;;20.16;56.27
61710;BME280;47633;51.494;5.386;2023-05-10T10:09:34;101062.81;;;20.19;56.10
61710;BME280;47633;51.494;5.386;2023-05-10T10:12:00;101075.91;;;20.21;56.11
61710;BME280;47633;51.494;5.386;2023-05-10T10:14:27;101072.25;;;20.22;56.08
61710;BME280;47633;51.494;5.386;2023-05-10T10:16:53;101075.78;;;20.22;56.09
61710;BME280;47633;51.494;5.386;2023-05-10T10:19:19;101080.06;;;20.23;56.02
61710;BME280;47633;51.494;5.386;2023-05-10T10:21:45;101075.63;;;20.24;56.00
61710;BME280;47633;51.494;5.386;2023-05-10T10:24:10;101066.72;;;20.25;56.02
61710;BME280;47633;51.494;5.386;2023-05-10T10:26:36;101067.84;;;20.22;56.01
61710;BME280;47633;51.494;5.386;2023-05-10T10:32:18;101071.19;;;20.24;56.20
61710;BME280;47633;51.494;5.386;2023-05-10T10:34:45;101063.66;;;20.29;55.97
61710;BME280;47633;51.494;5.386;2023-05-10T10:37:10;101062.00;;;20.28;55.79
61710;BME280;47633;51.494;5.386;2023-05-10T10:39:35;101063.41;;;20.33;55.92
61710;BME280;47633;51.494;5.386;2023-05-10T10:42:02;101061.66;;;20.43;55.58
61710;BME280;47633;51.494;5.386;2023-05-10T10:47:05;101070.88;;;20.58;55.44
61710;BME280;47633;51.494;5.386;2023-05-10T10:49:37;101068.06;;;20.60;54.99
61710;BME280;47633;51.494;5.386;2023-05-10T10:52:20;101066.16;;;20.62;54.90
61710;BME280;47633;51.494;5.386;2023-05-10T10:57:48;101067.91;;;20.42;55.29
61710;BME280;47633;51.494;5.386;2023-05-10T11:03:03;101066.06;;;20.33;55.86
61710;BME280;47633;51.494;5.386;2023-05-10T11:08:27;101069.94;;;20.28;56.24
61710;BME280;47633;51.494;5.386;2023-05-10T11:11:02;101074.38;;;20.28;56.15
61710;BME280;47633;51.494;5.386;2023-05-10T11:15:59;101065.88;;;20.24;56.23
61710;BME280;47633;51.494;5.386;2023-05-10T11:18:36;101067.31;;;20.28;56.18
61710;BME280;47633;51.494;5.386;2023-05-10T11:21:02;101068.56;;;20.34;55.91
61710;BME280;47633;51.494;5.386;2023-05-10T11:23:48;101072.75;;;20.37;55.92
61710;BME280;47633;51.494;5.386;2023-05-10T11:26:14;101071.63;;;20.39;55.95
61710;BME280;47633;51.494;5.386;2023-05-10T11:28:47;101069.84;;;20.40;55.90
61710;BME280;47633;51.494;5.386;2023-05-10T11:31:17;101063.13;;;20.36;56.09
61710;BME280;47633;51.494;5.386;2023-05-10T11:36:19;101085.03;;;20.38;56.12
61710;BME280;47633;51.494;5.386;2023-05-10T11:38:45;101082.53;;;20.36;56.59
61710;BME280;47633;51.494;5.386;2023-05-10T11:41:11;101094.91;;;20.36;56.32
61710;BME280;47633;51.494;5.386;2023-05-10T11:43:38;101095.16;;;20.33;56.32
61710;BME280;47633;51.494;5.386;2023-05-10T11:46:05;101093.38;;;20.33;56.04
61710;BME280;47633;51.494;5.386;2023-05-10T11:48:31;101113.28;;;20.37;56.39
61710;BME280;47633;51.494;5.386;2023-05-10T11:50:57;101102.16;;;20.34;56.65
61710;BME280;47633;51.494;5.386;2023-05-10T11:53:23;101115.97;;;20.47;56.00
61710;BME280;47633;51.494;5.386;2023-05-10T11:55:50;101111.69;;;20.56;55.31
61710;BME280;47633;51.494;5.386;2023-05-10T11:58:18;101114.78;;;20.61;55.31
61710;BME280;47633;51.494;5.386;2023-05-10T12:00:43;101117.88;;;20.66;55.11
61710;BME280;47633;51.494;5.386;2023-05-10T12:03:09;101120.06;;;20.61;55.14
61710;BME280;47633;51.494;5.386;2023-05-10T12:05:35;101126.19;;;20.61;54.91
61710;BME280;47633;51.494;5.386;2023-05-10T12:08:11;101129.25;;;20.57;55.15
61710;BME280;47633;51.494;5.386;2023-05-10T12:10:36;101134.16;;;20.61;55.13
61710;BME280;47633;51.494;5.386;2023-05-10T12:13:02;101129.13;;;20.58;54.76
61710;BME280;47633;51.494;5.386;2023-05-10T12:15:28;101131.75;;;20.58;55.04
61710;BME280;47633;51.494;5.386;2023-05-10T12:17:54;101134.41;;;20.58;55.08
61710;BME280;47633;51.494;5.386;2023-05-10T12:20:23;101132.88;;;20.56;54.96
61710;BME280;47633;51.494;5.386;2023-05-10T12:22:57;101125.47;;;20.50;55.13
61710;BME280;47633;51.494;5.386;2023-05-10T12:25:24;101132.31;;;20.52;55.13
61710;BME280;47633;51.494;5.386;2023-05-10T12:27:56;101132.72;;;20.47;55.16
61710;BME280;47633;51.494;5.386;2023-05-10T12:30:25;101139.53;;;20.50;55.20
61710;BME280;47633;51.494;5.386;2023-05-10T12:32:52;101144.13;;;20.48;55.04
61710;BME280;47633;51.494;5.386;2023-05-10T12:35:18;101135.50;;;20.46;55.14
61710;BME280;47633;51.494;5.386;2023-05-10T12:37:50;101128.78;;;20.42;55.18
61710;BME280;47633;51.494;5.386;2023-05-10T12:40:16;101133.94;;;20.43;55.12
61710;BME280;47633;51.494;5.386;2023-05-10T12:42:41;101141.06;;;20.43;55.16
61710;BME280;47633;51.494;5.386;2023-05-10T12:45:08;101135.03;;;20.41;55.00
61710;BME280;47633;51.494;5.386;2023-05-10T12:47:34;101141.19;;;20.41;55.15
61710;BME280;47633;51.494;5.386;2023-05-10T12:50:00;101139.50;;;20.40;55.25
61710;BME280;47633;51.494;5.386;2023-05-10T12:52:27;101141.19;;;20.41;55.29
61710;BME280;47633;51.494;5.386;2023-05-10T12:54:53;101142.97;;;20.41;55.27
61710;BME280;47633;51.494;5.386;2023-05-10T12:57:19;101137.69;;;20.41;55.35
61710;BME280;47633;51.494;5.386;2023-05-10T12:59:44;101141.19;;;20.41;55.43
61710;BME280;47633;51.494;5.386;2023-05-10T13:02:10;101133.38;;;20.40;55.42
61710;BME280;47633;51.494;5.386;2023-05-10T13:04:35;101131.00;;;20.37;55.29
61710;BME280;47633;51.494;5.386;2023-05-10T13:07:04;101137.97;;;20.38;55.64
61710;BME280;47633;51.494;5.386;2023-05-10T13:09:29;101135.34;;;20.38;55.50
61710;BME280;47633;51.494;5.386;2023-05-10T13:11:55;101146.03;;;20.36;55.67
61710;BME280;47633;51.494;5.386;2023-05-10T13:14:20;101144.38;;;20.35;55.75
61710;BME280;47633;51.494;5.386;2023-05-10T13:16:46;101147.69;;;20.37;55.70